sensor_id;sensor_type;location;lat;lon;timestamp;P1;durP1;ratioP1;P2;durP2;ratioP2
10050;SDS011;5065;46.942;7.432;2023-07-13T00:02:17;7.68;;;4.60;;
10050;SDS011;5065;46.942;7.432;2023-07-13T00:04:45;6.95;;;4.07;;
10050;SDS011;5065;46.942;7.432;2023-07-13T00:07:13;5.05;;;3.33;;
10050;SDS011;5065;46.942;7.432;2023-07-13T00:09:40;17.67;;;5.47;;
10050;SDS011;5065;46.942;7.432;2023-07-13T00:12:21;9.93;;;5.97;;
10050;SDS011;5065;46.942;7.432;2023-07-13T00:14:52;14.27;;;5.75;;
10050;SDS011;5065;46.942;7.432;2023-07-13T00:17:19;8.80;;;4.78;;
10050;SDS011;5065;46.942;7.432;2023-07-13T00:19:46;8.07;;;5.38;;
10050;SDS011;5065;46.942;7.432;2023-07-13T00:22:13;9.82;;;4.72;;
10050;SDS011;5065;46.942;7.432;2023-07-13T00:24:41;8.15;;;4.60;;
10050;SDS011;5065;46.942;7.432;2023-07-13T00:27:08;6.15;;;4.28;;
10050;SDS011;5065;46.942;7.432;2023-07-13T00:29:35;7.18;;;4.82;;
10050;SDS011;5065;46.942;7.432;2023-07-13T00:32:05;7.20;;;5.07;;
10050;SDS011;5065;46.942;7.432;2023-07-13T00:34:34;6.10;;;4.57;;
10050;SDS011;5065;46.942;7.432;2023-07-13T00:37:01;5.88;;;4.13;;
10050;SDS011;5065;46.942;7.432;2023-07-13T00:39:30;5.97;;;4.47;;
10050;SDS011;5065;46.942;7.432;2023-07-13T00:41:57;7.53;;;4.25;;
10050;SDS011;5065;46.942;7.432;2023-07-13T00:44:24;4.75;;;3.97;;
10050;SDS011;5065;46.942;7.432;2023-07-13T00:46:52;7.60;;;4.00;;
10050;SDS011;5065;46.942;7.432;2023-07-13T00:49:22;7.07;;;4.57;;
10050;SDS011;5065;46.942;7.432;2023-07-13T00:51:54;7.00;;;4.20;;
10050;SDS011;5065;46.942;7.432;2023-07-13T00:54:23;11.00;;;4.53;;
10050;SDS011;5065;46.942;7.432;2023-07-13T00:56:55;9.43;;;4.57;;
10050;SDS011;5065;46.942;7.432;2023-07-13T00:59:24;8.85;;;5.22;;
10050;SDS011;5065;46.942;7.432;2023-07-13T01:01:52;16.25;;;5.30;;
10050;SDS011;5065;46.942;7.432;2023-07-13T01:04:23;9.27;;;5.10;;
10050;SDS011;5065;46.942;7.432;2023-07-13T01:06:50;10.75;;;5.03;;
10050;SDS011;5065;46.942;7.432;2023-07-13T01:09:19;12.15;;;4.78;;
10050;SDS011;5065;46.942;7.432;2023-07-13T01:11:46;4.85;;;3.40;;
10050;SDS011;5065;46.942;7.432;2023-07-13T01:14:13;4.57;;;3.78;;
10050;SDS011;5065;46.942;7.432;2023-07-13T01:16:42;5.30;;;3.28;;
10050;SDS011;5065;46.942;7.432;2023-07-13T01:19:15;4.30;;;3.15;;
10050;SDS011;5065;46.942;7.432;2023-07-13T01:22:02;6.82;;;3.58;;
10050;SDS011;5065;46.942;7.432;2023-07-13T01:24:34;4.65;;;3.67;;
10050;SDS011;5065;46.942;7.432;2023-07-13T01:27:02;7.70;;;4.10;;
10050;SDS011;5065;46.942;7.432;2023-07-13T01:29:31;4.70;;;3.00;;
10050;SDS011;5065;46.942;7.432;2023-07-13T01:31:59;7.45;;;3.33;;
10050;SDS011;5065;46.942;7.432;2023-07-13T01:34:27;4.40;;;3.05;;
10050;SDS011;5065;46.942;7.432;2023-07-13T01:36:54;4.95;;;2.88;;
10050;SDS011;5065;46.942;7.432;2023-07-13T01:39:23;6.65;;;3.53;;
10050;SDS011;5065;46.942;7.432;2023-07-13T01:41:50;3.95;;;2.90;;
10050;SDS011;5065;46.942;7.432;2023-07-13T01:44:17;5.47;;;3.40;;
10050;SDS011;5065;46.942;7.432;2023-07-13T01:46:44;4.35;;;2.70;;
10050;SDS011;5065;46.942;7.432;2023-07-13T01:49:12;4.47;;;3.17;;
10050;SDS011;5065;46.942;7.432;2023-07-13T01:51:39;3.35;;;3.03;;
10050;SDS011;5065;46.942;7.432;2023-07-13T01:54:06;4.05;;;3.03;;
10050;SDS011;5065;46.942;7.432;2023-07-13T01:56:34;7.90;;;3.45;;
10050;SDS011;5065;46.942;7.432;2023-07-13T01:59:01;3.85;;;3.25;;
10050;SDS011;5065;46.942;7.432;2023-07-13T02:01:28;5.25;;;3.28;;
10050;SDS011;5065;46.942;7.432;2023-07-13T02:03:55;5.50;;;3.28;;
10050;SDS011;5065;46.942;7.432;2023-07-13T02:06:23;5.68;;;3.20;;
10050;SDS011;5065;46.942;7.432;2023-07-13T02:08:50;4.40;;;3.08;;
10050;SDS011;5065;46.942;7.432;2023-07-13T02:11:17;5.68;;;3.05;;
10050;SDS011;5065;46.942;7.432;2023-07-13T02:13:45;7.15;;;3.22;;
10050;SDS011;5065;46.942;7.432;2023-07-13T02:16:12;5.40;;;3.53;;
10050;SDS011;5065;46.942;7.432;2023-07-13T02:18:40;5.05;;;3.10;;
10050;SDS011;5065;46.942;7.432;2023-07-13T02:21:07;3.47;;;2.88;;
10050;SDS011;5065;46.942;7.432;2023-07-13T02:23:34;3.83;;;2.60;;
10050;SDS011;5065;46.942;7.432;2023-07-13T02:26:04;4.47;;;2.60;;
10050;SDS011;5065;46.942;7.432;2023-07-13T02:28:31;4.18;;;2.92;;
10050;SDS011;5065;46.942;7.432;2023-07-13T02:31:05;3.60;;;2.88;;
10050;SDS011;5065;46.942;7.432;2023-07-13T02:33:33;3.50;;;2.92;;
10050;SDS011;5065;46.942;7.432;2023-07-13T02:36:00;5.13;;;3.10;;
10050;SDS011;5065;46.942;7.432;2023-07-13T02:38:27;6.05;;;3.47;;
10050;SDS011;5065;46.942;7.432;2023-07-13T02:40:54;5.57;;;3.38;;
10050;SDS011;5065;46.942;7.432;2023-07-13T02:43:21;5.85;;;3.50;;
10050;SDS011;5065;46.942;7.432;2023-07-13T02:45:49;5.38;;;3.40;;
10050;SDS011;5065;46.942;7.432;2023-07-13T02:48:17;5.32;;;2.78;;
10050;SDS011;5065;46.942;7.432;2023-07-13T02:50:44;3.85;;;2.80;;
10050;SDS011;5065;46.942;7.432;2023-07-13T02:53:11;3.60;;;3.10;;
10050;SDS011;5065;46.942;7.432;2023-07-13T02:55:39;8.77;;;3.10;;
10050;SDS011;5065;46.942;7.432;2023-07-13T02:58:12;4.07;;;2.70;;
10050;SDS011;5065;46.942;7.432;2023-07-13T03:00:41;4.07;;;2.88;;
10050;SDS011;5065;46.942;7.432;2023-07-13T03:03:09;6.35;;;3.13;;
10050;SDS011;5065;46.942;7.432;2023-07-13T03:05:39;7.45;;;3.28;;
10050;SDS011;5065;46.942;7.432;2023-07-13T03:08:08;9.82;;;3.63;;
10050;SDS011;5065;46.942;7.432;2023-07-13T03:10:36;6.00;;;3.33;;
10050;SDS011;5065;46.942;7.432;2023-07-13T03:13:05;7.15;;;3.63;;
10050;SDS011;5065;46.942;7.432;2023-07-13T03:15:32;12.18;;;3.45;;
10050;SDS011;5065;46.942;7.432;2023-07-13T03:17:59;11.30;;;4.68;;
10050;SDS011;5065;46.942;7.432;2023-07-13T03:20:26;13.65;;;4.50;;
10050;SDS011;5065;46.942;7.432;2023-07-13T03:22:55;17.77;;;4.53;;
10050;SDS011;5065;46.942;7.432;2023-07-13T03:25:22;18.02;;;5.15;;
10050;SDS011;5065;46.942;7.432;2023-07-13T03:27:49;22.30;;;5.78;;
10050;SDS011;5065;46.942;7.432;2023-07-13T03:30:16;11.23;;;3.88;;
10050;SDS011;5065;46.942;7.432;2023-07-13T03:32:43;15.65;;;4.28;;
10050;SDS011;5065;46.942;7.432;2023-07-13T03:35:10;13.40;;;4.25;;
10050;SDS011;5065;46.942;7.432;2023-07-13T03:37:37;21.58;;;3.53;;
10050;SDS011;5065;46.942;7.432;2023-07-13T03:40:09;8.30;;;3.60;;
10050;SDS011;5065;46.942;7.432;2023-07-13T03:42:37;5.18;;;2.67;;
10050;SDS011;5065;46.942;7.432;2023-07-13T03:45:04;5.03;;;2.83;;
10050;SDS011;5065;46.942;7.432;2023-07-13T03:47:32;8.60;;;3.03;;
10050;SDS011;5065;46.942;7.432;2023-07-13T03:49:59;4.80;;;3.22;;
10050;SDS011;5065;46.942;7.432;2023-07-13T03:52:26;8.98;;;4.38;;
10050;SDS011;5065;46.942;7.432;2023-07-13T03:54:53;6.63;;;3.72;;
10050;SDS011;5065;46.942;7.432;2023-07-13T03:57:22;6.43;;;4.20;;
10050;SDS011;5065;46.942;7.432;2023-07-13T03:59:49;5.78;;;3.50;;
10050;SDS011;5065;46.942;7.432;2023-07-13T04:02:16;5.22;;;3.00;;
10050;SDS011;5065;46.942;7.432;2023-07-13T04:04:43;4.97;;;2.85;;
10050;SDS011;5065;46.942;7.432;2023-07-13T04:07:11;3.25;;;2.60;;
10050;SDS011;5065;46.942;7.432;2023-07-13T04:09:38;4.95;;;3.10;;
10050;SDS011;5065;46.942;7.432;2023-07-13T04:12:05;3.08;;;2.70;;
10050;SDS011;5065;46.942;7.432;2023-07-13T04:14:34;3.65;;;2.65;;
10050;SDS011;5065;46.942;7.432;2023-07-13T04:17:01;9.68;;;3.10;;
10050;SDS011;5065;46.942;7.432;2023-07-13T04:19:29;4.30;;;2.75;;
10050;SDS011;5065;46.942;7.432;2023-07-13T04:21:56;3.53;;;2.60;;
10050;SDS011;5065;46.942;7.432;2023-07-13T04:24:23;4.50;;;2.88;;
10050;SDS011;5065;46.942;7.432;2023-07-13T04:26:51;6.10;;;4.60;;
10050;SDS011;5065;46.942;7.432;2023-07-13T04:29:18;3.78;;;2.35;;
10050;SDS011;5065;46.942;7.432;2023-07-13T04:31:46;3.60;;;2.65;;
10050;SDS011;5065;46.942;7.432;2023-07-13T04:34:13;3.50;;;2.38;;
10050;SDS011;5065;46.942;7.432;2023-07-13T04:36:41;4.65;;;2.38;;
10050;SDS011;5065;46.942;7.432;2023-07-13T04:39:09;3.00;;;2.70;;
10050;SDS011;5065;46.942;7.432;2023-07-13T04:41:36;3.95;;;2.60;;
10050;SDS011;5065;46.942;7.432;2023-07-13T04:44:03;3.75;;;2.83;;
10050;SDS011;5065;46.942;7.432;2023-07-13T04:46:31;5.95;;;2.75;;
10050;SDS011;5065;46.942;7.432;2023-07-13T04:48:59;4.55;;;2.58;;
10050;SDS011;5065;46.942;7.432;2023-07-13T04:51:29;2.88;;;2.55;;
10050;SDS011;5065;46.942;7.432;2023-07-13T04:53:56;2.55;;;2.30;;
10050;SDS011;5065;46.942;7.432;2023-07-13T04:56:23;3.95;;;2.63;;
10050;SDS011;5065;46.942;7.432;2023-07-13T04:58:50;2.90;;;2.58;;
10050;SDS011;5065;46.942;7.432;2023-07-13T05:01:17;4.22;;;2.33;;
10050;SDS011;5065;46.942;7.432;2023-07-13T05:03:45;4.13;;;2.58;;
10050;SDS011;5065;46.942;7.432;2023-07-13T05:06:13;3.05;;;2.55;;
10050;SDS011;5065;46.942;7.432;2023-07-13T05:08:40;3.08;;;2.30;;
10050;SDS011;5065;46.942;7.432;2023-07-13T05:11:07;2.38;;;2.05;;
10050;SDS011;5065;46.942;7.432;2023-07-13T05:13:35;3.95;;;2.13;;
10050;SDS011;5065;46.942;7.432;2023-07-13T05:16:03;3.67;;;2.17;;
10050;SDS011;5065;46.942;7.432;2023-07-13T05:18:32;3.90;;;2.13;;
10050;SDS011;5065;46.942;7.432;2023-07-13T05:21:00;2.80;;;2.47;;
10050;SDS011;5065;46.942;7.432;2023-07-13T05:23:31;3.53;;;2.35;;
10050;SDS011;5065;46.942;7.432;2023-07-13T05:25:58;3.03;;;2.20;;
10050;SDS011;5065;46.942;7.432;2023-07-13T05:28:26;3.33;;;2.60;;
10050;SDS011;5065;46.942;7.432;2023-07-13T05:30:54;3.05;;;2.33;;
10050;SDS011;5065;46.942;7.432;2023-07-13T05:33:21;3.67;;;2.70;;
10050;SDS011;5065;46.942;7.432;2023-07-13T05:35:48;3.83;;;2.35;;
10050;SDS011;5065;46.942;7.432;2023-07-13T05:38:15;4.65;;;2.65;;
10050;SDS011;5065;46.942;7.432;2023-07-13T05:40:44;3.17;;;2.55;;
10050;SDS011;5065;46.942;7.432;2023-07-13T05:43:12;4.15;;;1.98;;
10050;SDS011;5065;46.942;7.432;2023-07-13T05:45:40;2.58;;;2.10;;
10050;SDS011;5065;46.942;7.432;2023-07-13T05:48:08;3.42;;;2.30;;
10050;SDS011;5065;46.942;7.432;2023-07-13T05:50:35;4.68;;;2.47;;
10050;SDS011;5065;46.942;7.432;2023-07-13T05:53:02;3.03;;;2.38;;
10050;SDS011;5065;46.942;7.432;2023-07-13T05:55:30;8.50;;;5.82;;
10050;SDS011;5065;46.942;7.432;2023-07-13T05:57:59;3.97;;;2.20;;
10050;SDS011;5065;46.942;7.432;2023-07-13T06:00:27;5.28;;;2.13;;
10050;SDS011;5065;46.942;7.432;2023-07-13T06:02:55;2.42;;;2.00;;
10050;SDS011;5065;46.942;7.432;2023-07-13T06:05:23;2.80;;;2.20;;
10050;SDS011;5065;46.942;7.432;2023-07-13T06:07:50;4.55;;;2.22;;
10050;SDS011;5065;46.942;7.432;2023-07-13T06:10:18;2.55;;;2.30;;
10050;SDS011;5065;46.942;7.432;2023-07-13T06:12:45;3.45;;;2.22;;
10050;SDS011;5065;46.942;7.432;2023-07-13T06:15:16;2.72;;;2.40;;
10050;SDS011;5065;46.942;7.432;2023-07-13T06:17:44;4.55;;;2.25;;
10050;SDS011;5065;46.942;7.432;2023-07-13T06:20:11;2.25;;;2.05;;
10050;SDS011;5065;46.942;7.432;2023-07-13T06:22:38;6.03;;;2.67;;
10050;SDS011;5065;46.942;7.432;2023-07-13T06:25:06;2.78;;;2.28;;
10050;SDS011;5065;46.942;7.432;2023-07-13T06:27:34;4.00;;;2.05;;
10050;SDS011;5065;46.942;7.432;2023-07-13T06:30:01;3.58;;;1.70;;
10050;SDS011;5065;46.942;7.432;2023-07-13T06:32:30;2.88;;;1.73;;
10050;SDS011;5065;46.942;7.432;2023-07-13T06:34:57;5.88;;;4.05;;
10050;SDS011;5065;46.942;7.432;2023-07-13T06:37:24;5.10;;;4.22;;
10050;SDS011;5065;46.942;7.432;2023-07-13T06:39:51;2.88;;;2.45;;
10050;SDS011;5065;46.942;7.432;2023-07-13T06:42:18;3.22;;;1.90;;
10050;SDS011;5065;46.942;7.432;2023-07-13T06:44:45;2.00;;;1.80;;
10050;SDS011;5065;46.942;7.432;2023-07-13T06:47:13;2.80;;;2.25;;
10050;SDS011;5065;46.942;7.432;2023-07-13T06:49:41;2.15;;;1.95;;
10050;SDS011;5065;46.942;7.432;2023-07-13T06:52:08;3.53;;;2.20;;
10050;SDS011;5065;46.942;7.432;2023-07-13T06:54:35;4.97;;;2.00;;
10050;SDS011;5065;46.942;7.432;2023-07-13T06:57:02;2.10;;;1.90;;
10050;SDS011;5065;46.942;7.432;2023-07-13T06:59:30;3.22;;;2.05;;
10050;SDS011;5065;46.942;7.432;2023-07-13T07:01:57;2.17;;;1.70;;
10050;SDS011;5065;46.942;7.432;2023-07-13T07:04:24;2.35;;;2.00;;
10050;SDS011;5065;46.942;7.432;2023-07-13T07:06:53;5.07;;;2.47;;
10050;SDS011;5065;46.942;7.432;2023-07-13T07:09:20;3.80;;;2.35;;
10050;SDS011;5065;46.942;7.432;2023-07-13T07:11:47;2.63;;;2.05;;
10050;SDS011;5065;46.942;7.432;2023-07-13T07:14:15;2.72;;;1.88;;
10050;SDS011;5065;46.942;7.432;2023-07-13T07:16:42;2.42;;;1.88;;
10050;SDS011;5065;46.942;7.432;2023-07-13T07:19:09;3.38;;;2.10;;
10050;SDS011;5065;46.942;7.432;2023-07-13T07:21:37;5.20;;;2.83;;
10050;SDS011;5065;46.942;7.432;2023-07-13T07:24:05;2.92;;;1.83;;
10050;SDS011;5065;46.942;7.432;2023-07-13T07:26:33;7.18;;;1.88;;
10050;SDS011;5065;46.942;7.432;2023-07-13T07:29:00;2.28;;;1.67;;
10050;SDS011;5065;46.942;7.432;2023-07-13T07:31:27;3.65;;;2.10;;
10050;SDS011;5065;46.942;7.432;2023-07-13T07:33:54;5.13;;;2.38;;
10050;SDS011;5065;46.942;7.432;2023-07-13T07:36:21;4.13;;;2.28;;
10050;SDS011;5065;46.942;7.432;2023-07-13T07:38:48;4.95;;;2.03;;
10050;SDS011;5065;46.942;7.432;2023-07-13T07:41:17;5.78;;;1.70;;
10050;SDS011;5065;46.942;7.432;2023-07-13T07:43:44;1.55;;;1.40;;
10050;SDS011;5065;46.942;7.432;2023-07-13T07:46:11;2.05;;;1.50;;
10050;SDS011;5065;46.942;7.432;2023-07-13T07:48:38;4.75;;;1.55;;
10050;SDS011;5065;46.942;7.432;2023-07-13T07:51:05;2.97;;;1.83;;
10050;SDS011;5065;46.942;7.432;2023-07-13T07:53:33;2.83;;;1.90;;
10050;SDS011;5065;46.942;7.432;2023-07-13T07:56:00;2.50;;;1.90;;
10050;SDS011;5065;46.942;7.432;2023-07-13T07:58:28;2.47;;;1.70;;
10050;SDS011;5065;46.942;7.432;2023-07-13T08:01:01;2.92;;;1.90;;
10050;SDS011;5065;46.942;7.432;2023-07-13T08:03:29;3.63;;;1.98;;
10050;SDS011;5065;46.942;7.432;2023-07-13T08:05:56;4.28;;;2.00;;
10050;SDS011;5065;46.942;7.432;2023-07-13T08:08:23;4.85;;;2.70;;
10050;SDS011;5065;46.942;7.432;2023-07-13T08:10:51;2.28;;;1.42;;
10050;SDS011;5065;46.942;7.432;2023-07-13T08:13:18;10.10;;;2.45;;
10050;SDS011;5065;46.942;7.432;2023-07-13T08:15:47;2.70;;;1.90;;
10050;SDS011;5065;46.942;7.432;2023-07-13T08:18:15;5.25;;;1.85;;
10050;SDS011;5065;46.942;7.432;2023-07-13T08:20:42;8.35;;;3.47;;
10050;SDS011;5065;46.942;7.432;2023-07-13T08:23:10;5.43;;;2.15;;
10050;SDS011;5065;46.942;7.432;2023-07-13T08:25:37;3.42;;;2.15;;
10050;SDS011;5065;46.942;7.432;2023-07-13T08:28:04;2.42;;;1.95;;
10050;SDS011;5065;46.942;7.432;2023-07-13T08:30:31;3.92;;;2.00;;
10050;SDS011;5065;46.942;7.432;2023-07-13T08:33:00;3.85;;;2.20;;
10050;SDS011;5065;46.942;7.432;2023-07-13T08:35:27;2.45;;;2.17;;
10050;SDS011;5065;46.942;7.432;2023-07-13T08:37:55;2.03;;;1.42;;
10050;SDS011;5065;46.942;7.432;2023-07-13T08:40:24;2.13;;;1.90;;
10050;SDS011;5065;46.942;7.432;2023-07-13T08:42:53;1.60;;;1.50;;
10050;SDS011;5065;46.942;7.432;2023-07-13T08:45:23;2.25;;;1.70;;
10050;SDS011;5065;46.942;7.432;2023-07-13T08:47:57;1.73;;;1.45;;
10050;SDS011;5065;46.942;7.432;2023-07-13T08:50:31;1.67;;;1.52;;
10050;SDS011;5065;46.942;7.432;2023-07-13T08:53:01;3.20;;;1.40;;
10050;SDS011;5065;46.942;7.432;2023-07-13T08:55:31;3.97;;;1.58;;
10050;SDS011;5065;46.942;7.432;2023-07-13T08:58:04;1.67;;;1.58;;
10050;SDS011;5065;46.942;7.432;2023-07-13T09:00:38;3.38;;;1.65;;
10050;SDS011;5065;46.942;7.432;2023-07-13T09:03:18;3.40;;;1.80;;
10050;SDS011;5065;46.942;7.432;2023-07-13T09:05:49;4.60;;;1.45;;
10050;SDS011;5065;46.942;7.432;2023-07-13T09:08:33;7.75;;;1.40;;
10050;SDS011;5065;46.942;7.432;2023-07-13T09:11:11;2.85;;;1.60;;
10050;SDS011;5065;46.942;7.432;2023-07-13T09:13:52;4.70;;;1.50;;
10050;SDS011;5065;46.942;7.432;2023-07-13T09:16:26;2.35;;;1.67;;
10050;SDS011;5065;46.942;7.432;2023-07-13T09:18:56;4.72;;;1.98;;
10050;SDS011;5065;46.942;7.432;2023-07-13T09:21:28;5.05;;;1.67;;
10050;SDS011;5065;46.942;7.432;2023-07-13T09:24:24;2.03;;;1.20;;
10050;SDS011;5065;46.942;7.432;2023-07-13T09:27:11;1.17;;;1.05;;
10050;SDS011;5065;46.942;7.432;2023-07-13T09:29:44;1.85;;;1.33;;
10050;SDS011;5065;46.942;7.432;2023-07-13T09:32:16;1.65;;;1.20;;
10050;SDS011;5065;46.942;7.432;2023-07-13T09:34:50;4.72;;;1.60;;
10050;SDS011;5065;46.942;7.432;2023-07-13T09:37:20;1.63;;;1.20;;
10050;SDS011;5065;46.942;7.432;2023-07-13T09:39:51;4.28;;;1.20;;
10050;SDS011;5065;46.942;7.432;2023-07-13T09:42:20;1.60;;;1.15;;
10050;SDS011;5065;46.942;7.432;2023-07-13T09:44:53;1.20;;;1.10;;
10050;SDS011;5065;46.942;7.432;2023-07-13T09:47:21;0.95;;;0.90;;
10050;SDS011;5065;46.942;7.432;2023-07-13T09:49:54;1.65;;;1.20;;
10050;SDS011;5065;46.942;7.432;2023-07-13T09:52:23;2.10;;;1.65;;
10050;SDS011;5065;46.942;7.432;2023-07-13T09:54:54;4.82;;;1.67;;
10050;SDS011;5065;46.942;7.432;2023-07-13T09:57:25;1.50;;;0.90;;
10050;SDS011;5065;46.942;7.432;2023-07-13T09:59:54;5.65;;;1.00;;
10050;SDS011;5065;46.942;7.432;2023-07-13T10:02:25;1.30;;;0.85;;
10050;SDS011;5065;46.942;7.432;2023-07-13T10:04:58;1.10;;;1.00;;
10050;SDS011;5065;46.942;7.432;2023-07-13T10:07:28;2.65;;;1.00;;
10050;SDS011;5065;46.942;7.432;2023-07-13T10:09:58;1.42;;;1.10;;
10050;SDS011;5065;46.942;7.432;2023-07-13T10:12:28;1.85;;;0.80;;
10050;SDS011;5065;46.942;7.432;2023-07-13T10:14:56;1.80;;;1.15;;
10050;SDS011;5065;46.942;7.432;2023-07-13T10:17:28;2.72;;;1.10;;
10050;SDS011;5065;46.942;7.432;2023-07-13T10:19:58;2.03;;;1.15;;
10050;SDS011;5065;46.942;7.432;2023-07-13T10:22:31;2.33;;;1.27;;
10050;SDS011;5065;46.942;7.432;2023-07-13T10:25:14;1.40;;;1.30;;
10050;SDS011;5065;46.942;7.432;2023-07-13T10:27:44;2.80;;;1.73;;
10050;SDS011;5065;46.942;7.432;2023-07-13T10:30:13;1.90;;;1.80;;
10050;SDS011;5065;46.942;7.432;2023-07-13T10:32:45;5.15;;;1.60;;
10050;SDS011;5065;46.942;7.432;2023-07-13T10:35:14;1.90;;;1.70;;
10050;SDS011;5065;46.942;7.432;2023-07-13T10:37:45;4.43;;;1.55;;
10050;SDS011;5065;46.942;7.432;2023-07-13T10:40:22;1.65;;;1.30;;
10050;SDS011;5065;46.942;7.432;2023-07-13T10:42:54;1.80;;;1.33;;
10050;SDS011;5065;46.942;7.432;2023-07-13T10:45:29;1.70;;;1.42;;
10050;SDS011;5065;46.942;7.432;2023-07-13T10:48:00;2.25;;;1.60;;
10050;SDS011;5065;46.942;7.432;2023-07-13T10:50:29;2.58;;;1.73;;
10050;SDS011;5065;46.942;7.432;2023-07-13T10:53:01;3.50;;;1.30;;
10050;SDS011;5065;46.942;7.432;2023-07-13T10:55:34;5.35;;;1.40;;
10050;SDS011;5065;46.942;7.432;2023-07-13T10:58:11;2.30;;;1.40;;
10050;SDS011;5065;46.942;7.432;2023-07-13T11:00:47;2.17;;;1.70;;
10050;SDS011;5065;46.942;7.432;2023-07-13T11:03:17;6.00;;;1.73;;
10050;SDS011;5065;46.942;7.432;2023-07-13T11:05:49;1.63;;;1.40;;
10050;SDS011;5065;46.942;7.432;2023-07-13T11:08:21;2.65;;;1.83;;
10050;SDS011;5065;46.942;7.432;2023-07-13T11:11:03;3.28;;;1.73;;
10050;SDS011;5065;46.942;7.432;2023-07-13T11:13:57;4.00;;;1.50;;
10050;SDS011;5065;46.942;7.432;2023-07-13T11:16:35;2.65;;;1.73;;
10050;SDS011;5065;46.942;7.432;2023-07-13T11:22:12;2.97;;;2.10;;
10050;SDS011;5065;46.942;7.432;2023-07-13T11:24:48;1.92;;;1.65;;
10050;SDS011;5065;46.942;7.432;2023-07-13T11:27:39;3.58;;;1.90;;
10050;SDS011;5065;46.942;7.432;2023-07-13T11:33:09;6.15;;;1.70;;
10050;SDS011;5065;46.942;7.432;2023-07-13T11:35:43;4.68;;;1.95;;
10050;SDS011;5065;46.942;7.432;2023-07-13T11:38:16;2.63;;;1.95;;
10050;SDS011;5065;46.942;7.432;2023-07-13T11:40:46;1.40;;;1.30;;
10050;SDS011;5065;46.942;7.432;2023-07-13T11:43:16;3.60;;;1.67;;
10050;SDS011;5065;46.942;7.432;2023-07-13T11:45:43;3.15;;;1.85;;
10050;SDS011;5065;46.942;7.432;2023-07-13T11:48:21;2.10;;;1.90;;
10050;SDS011;5065;46.942;7.432;2023-07-13T11:50:51;2.13;;;1.90;;
10050;SDS011;5065;46.942;7.432;2023-07-13T11:53:26;3.55;;;2.60;;
10050;SDS011;5065;46.942;7.432;2023-07-13T11:55:56;2.20;;;1.70;;
10050;SDS011;5065;46.942;7.432;2023-07-13T11:58:26;1.98;;;1.70;;
10050;SDS011;5065;46.942;7.432;2023-07-13T12:00:57;5.00;;;2.13;;
10050;SDS011;5065;46.942;7.432;2023-07-13T12:03:26;2.13;;;1.65;;
10050;SDS011;5065;46.942;7.432;2023-07-13T12:05:55;1.75;;;1.50;;
10050;SDS011;5065;46.942;7.432;2023-07-13T12:08:25;2.25;;;1.58;;
10050;SDS011;5065;46.942;7.432;2023-07-13T12:11:04;3.67;;;1.50;;
10050;SDS011;5065;46.942;7.432;2023-07-13T12:13:40;1.83;;;1.50;;
10050;SDS011;5065;46.942;7.432;2023-07-13T12:16:17;1.60;;;1.27;;
10050;SDS011;5065;46.942;7.432;2023-07-13T12:18:52;3.55;;;1.65;;
10050;SDS011;5065;46.942;7.432;2023-07-13T12:21:22;1.60;;;1.33;;
10050;SDS011;5065;46.942;7.432;2023-07-13T12:23:56;4.18;;;1.30;;
10050;SDS011;5065;46.942;7.432;2023-07-13T12:26:23;2.85;;;1.30;;
10050;SDS011;5065;46.942;7.432;2023-07-13T12:28:53;1.55;;;1.45;;
10050;SDS011;5065;46.942;7.432;2023-07-13T12:31:26;3.30;;;1.77;;
10050;SDS011;5065;46.942;7.432;2023-07-13T12:33:59;5.13;;;1.88;;
10050;SDS011;5065;46.942;7.432;2023-07-13T12:36:32;1.80;;;1.67;;
10050;SDS011;5065;46.942;7.432;2023-07-13T12:39:03;2.13;;;1.42;;
10050;SDS011;5065;46.942;7.432;2023-07-13T12:41:38;2.58;;;1.65;;
10050;SDS011;5065;46.942;7.432;2023-07-13T12:44:15;2.17;;;1.50;;
10050;SDS011;5065;46.942;7.432;2023-07-13T12:46:52;4.10;;;1.58;;
10050;SDS011;5065;46.942;7.432;2023-07-13T12:49:29;8.80;;;1.85;;
10050;SDS011;5065;46.942;7.432;2023-07-13T12:52:01;3.05;;;1.60;;
10050;SDS011;5065;46.942;7.432;2023-07-13T12:54:29;4.82;;;2.00;;
10050;SDS011;5065;46.942;7.432;2023-07-13T12:56:58;3.15;;;1.95;;
10050;SDS011;5065;46.942;7.432;2023-07-13T12:59:31;3.33;;;1.52;;
10050;SDS011;5065;46.942;7.432;2023-07-13T13:02:04;1.63;;;1.52;;
10050;SDS011;5065;46.942;7.432;2023-07-13T13:04:52;2.25;;;1.38;;
10050;SDS011;5065;46.942;7.432;2023-07-13T13:07:21;2.33;;;1.63;;
10050;SDS011;5065;46.942;7.432;2023-07-13T13:09:49;4.13;;;1.50;;
10050;SDS011;5065;46.942;7.432;2023-07-13T13:12:17;3.63;;;1.85;;
10050;SDS011;5065;46.942;7.432;2023-07-13T13:14:46;3.17;;;1.60;;
10050;SDS011;5065;46.942;7.432;2023-07-13T13:17:17;1.58;;;1.45;;
10050;SDS011;5065;46.942;7.432;2023-07-13T13:19:46;1.73;;;1.42;;
10050;SDS011;5065;46.942;7.432;2023-07-13T13:22:15;1.98;;;1.75;;
10050;SDS011;5065;46.942;7.432;2023-07-13T13:24:42;3.65;;;1.63;;
10050;SDS011;5065;46.942;7.432;2023-07-13T13:27:13;1.88;;;1.67;;
10050;SDS011;5065;46.942;7.432;2023-07-13T13:29:43;2.40;;;1.65;;
10050;SDS011;5065;46.942;7.432;2023-07-13T13:32:13;1.52;;;1.40;;
10050;SDS011;5065;46.942;7.432;2023-07-13T13:34:41;3.35;;;1.42;;
10050;SDS011;5065;46.942;7.432;2023-07-13T13:37:15;1.25;;;1.15;;
10050;SDS011;5065;46.942;7.432;2023-07-13T13:39:45;2.00;;;1.75;;
10050;SDS011;5065;46.942;7.432;2023-07-13T13:42:13;4.05;;;1.73;;
10050;SDS011;5065;46.942;7.432;2023-07-13T13:44:40;5.40;;;1.50;;
10050;SDS011;5065;46.942;7.432;2023-07-13T13:47:14;3.42;;;1.60;;
10050;SDS011;5065;46.942;7.432;2023-07-13T13:49:57;2.20;;;1.80;;
10050;SDS011;5065;46.942;7.432;2023-07-13T13:52:25;4.85;;;1.88;;
10050;SDS011;5065;46.942;7.432;2023-07-13T13:54:52;3.70;;;1.40;;
10050;SDS011;5065;46.942;7.432;2023-07-13T13:57:21;3.03;;;1.83;;
10050;SDS011;5065;46.942;7.432;2023-07-13T13:59:50;3.45;;;1.70;;
10050;SDS011;5065;46.942;7.432;2023-07-13T14:02:23;1.30;;;1.20;;
10050;SDS011;5065;46.942;7.432;2023-07-13T14:04:53;2.40;;;1.48;;
10050;SDS011;5065;46.942;7.432;2023-07-13T14:07:23;3.08;;;1.60;;
10050;SDS011;5065;46.942;7.432;2023-07-13T14:09:50;3.38;;;1.50;;
10050;SDS011;5065;46.942;7.432;2023-07-13T14:12:18;5.47;;;1.42;;
10050;SDS011;5065;46.942;7.432;2023-07-13T14:14:46;4.35;;;1.83;;
10050;SDS011;5065;46.942;7.432;2023-07-13T14:17:17;3.97;;;1.70;;
10050;SDS011;5065;46.942;7.432;2023-07-13T14:19:49;4.57;;;1.80;;
10050;SDS011;5065;46.942;7.432;2023-07-13T14:22:22;1.98;;;1.63;;
10050;SDS011;5065;46.942;7.432;2023-07-13T14:24:49;3.42;;;1.35;;
10050;SDS011;5065;46.942;7.432;2023-07-13T14:27:18;3.90;;;1.60;;
10050;SDS011;5065;46.942;7.432;2023-07-13T14:29:45;1.80;;;1.65;;
10050;SDS011;5065;46.942;7.432;2023-07-13T14:32:13;2.00;;;1.20;;
10050;SDS011;5065;46.942;7.432;2023-07-13T14:34:40;1.85;;;1.25;;
10050;SDS011;5065;46.942;7.432;2023-07-13T14:37:13;4.20;;;1.75;;
10050;SDS011;5065;46.942;7.432;2023-07-13T14:39:42;3.90;;;1.33;;
10050;SDS011;5065;46.942;7.432;2023-07-13T14:42:10;2.60;;;1.42;;
10050;SDS011;5065;46.942;7.432;2023-07-13T14:44:38;2.58;;;1.60;;
10050;SDS011;5065;46.942;7.432;2023-07-13T14:47:06;2.92;;;1.65;;
10050;SDS011;5065;46.942;7.432;2023-07-13T14:49:34;1.58;;;1.27;;
10050;SDS011;5065;46.942;7.432;2023-07-13T14:52:08;4.25;;;1.23;;
10050;SDS011;5065;46.942;7.432;2023-07-13T14:54:39;2.67;;;1.38;;
10050;SDS011;5065;46.942;7.432;2023-07-13T14:57:11;1.83;;;1.23;;
10050;SDS011;5065;46.942;7.432;2023-07-13T14:59:40;2.72;;;1.65;;
10050;SDS011;5065;46.942;7.432;2023-07-13T15:02:25;5.70;;;1.35;;
10050;SDS011;5065;46.942;7.432;2023-07-13T15:04:55;2.03;;;1.30;;
10050;SDS011;5065;46.942;7.432;2023-07-13T15:07:26;2.53;;;1.60;;
10050;SDS011;5065;46.942;7.432;2023-07-13T15:09:56;3.10;;;1.42;;
10050;SDS011;5065;46.942;7.432;2023-07-13T15:12:23;2.97;;;1.67;;
10050;SDS011;5065;46.942;7.432;2023-07-13T15:14:53;4.97;;;3.00;;
10050;SDS011;5065;46.942;7.432;2023-07-13T15:17:24;3.45;;;1.75;;
10050;SDS011;5065;46.942;7.432;2023-07-13T15:19:59;3.33;;;1.90;;
10050;SDS011;5065;46.942;7.432;2023-07-13T15:22:27;1.40;;;1.30;;